createdAt,value
2022-09-13T00:00:56.619Z,1.80
2022-09-13T00:03:43.688Z,1.90
2022-09-13T00:06:30.804Z,1.80
2022-09-13T00:09:17.987Z,2.00
2022-09-13T00:12:05.199Z,1.80
2022-09-13T00:14:52.295Z,1.90
2022-09-13T00:17:39.412Z,1.83
2022-09-13T00:20:27.060Z,1.65
2022-09-13T00:23:14.445Z,2.05
2022-09-13T00:26:06.967Z,1.90
2022-09-13T00:28:56.794Z,1.80
2022-09-13T00:31:43.860Z,1.70
2022-09-13T00:34:31.474Z,1.80
2022-09-13T00:37:18.735Z,1.80
2022-09-13T00:40:06.691Z,1.70
2022-09-13T00:42:53.749Z,2.05
2022-09-13T00:45:40.861Z,1.80
2022-09-13T00:48:28.161Z,1.70
2022-09-13T00:51:15.769Z,1.50
2022-09-13T00:54:04.815Z,1.60
2022-09-13T00:56:56.321Z,1.70
2022-09-13T00:59:48.098Z,1.75
2022-09-13T01:02:35.623Z,1.70
2022-09-13T01:05:26.325Z,1.67
2022-09-13T01:08:22.466Z,1.77
2022-09-13T01:11:16.192Z,1.70
2022-09-13T01:14:04.227Z,1.80
2022-09-13T01:16:52.603Z,1.73
2022-09-13T01:19:40.080Z,1.70
2022-09-13T01:22:36.338Z,1.80
2022-09-13T01:25:33.354Z,1.63
2022-09-13T01:28:42.106Z,1.60
2022-09-13T01:31:54.142Z,1.98
2022-09-13T01:35:16.461Z,1.67
2022-09-13T01:38:18.663Z,1.80
2022-09-13T01:41:11.540Z,2.03
2022-09-13T01:44:14.202Z,2.03
2022-09-13T01:47:22.437Z,1.90
2022-09-13T01:50:31.509Z,1.90
2022-09-13T01:53:37.673Z,1.80
2022-09-13T01:56:38.514Z,1.88
2022-09-13T01:59:48.579Z,1.80
2022-09-13T02:02:44.618Z,2.28
2022-09-13T02:05:39.003Z,1.75
2022-09-13T02:08:41.334Z,1.90
2022-09-13T02:11:29.135Z,1.70
2022-09-13T02:14:20.678Z,1.95
2022-09-13T02:17:15.050Z,1.77
2022-09-13T02:20:09.789Z,1.90
2022-09-13T02:23:02.031Z,1.80
2022-09-13T02:25:49.856Z,1.70
2022-09-13T02:28:41.741Z,1.73
2022-09-13T02:31:37.066Z,1.80
2022-09-13T02:34:34.773Z,1.90
2022-09-13T02:37:25.263Z,1.77
2022-09-13T02:40:22.136Z,1.67
2022-09-13T02:43:16.019Z,1.80
2022-09-13T02:46:47.125Z,1.65
2022-09-13T02:49:47.080Z,1.77
2022-09-13T02:52:47.098Z,2.00
2022-09-13T02:56:01.914Z,1.95
2022-09-13T02:58:58.994Z,1.75
2022-09-13T03:01:52.747Z,1.77
2022-09-13T03:04:40.466Z,1.60
2022-09-13T03:07:28.380Z,1.60
2022-09-13T03:10:16.234Z,1.65
2022-09-13T03:13:44.344Z,1.73
2022-09-13T03:16:56.324Z,1.95
2022-09-13T03:19:52.269Z,1.55
2022-09-13T03:22:54.525Z,1.70
2022-09-13T03:26:10.713Z,1.70
2022-09-13T03:29:16.494Z,1.80
2022-09-13T03:32:16.809Z,1.80
2022-09-13T03:35:34.668Z,2.00
2022-09-13T03:38:37.139Z,1.52
2022-09-13T03:41:29.891Z,1.73
2022-09-13T03:44:20.283Z,1.60
2022-09-13T03:47:08.424Z,1.70
2022-09-13T03:49:56.995Z,1.55
2022-09-13T03:52:47.173Z,1.50
2022-09-13T03:55:39.747Z,1.85
2022-09-13T03:58:27.216Z,1.70
2022-09-13T04:01:17.394Z,1.75
2022-09-13T04:04:04.653Z,1.42
2022-09-13T04:06:51.675Z,1.80
2022-09-13T04:09:39.636Z,1.63
2022-09-13T04:12:28.457Z,1.67
2022-09-13T04:15:16.385Z,1.77
2022-09-13T04:18:03.580Z,1.60
2022-09-13T04:20:55.656Z,1.83
2022-09-13T04:23:42.822Z,1.58
2022-09-13T04:26:30.083Z,2.28
2022-09-13T04:29:18.345Z,1.70
2022-09-13T04:32:05.590Z,1.77
2022-09-13T04:34:52.798Z,1.60
2022-09-13T04:37:39.982Z,1.70
2022-09-13T04:40:27.213Z,1.52
2022-09-13T04:43:14.264Z,1.60
2022-09-13T04:46:01.854Z,1.70
2022-09-13T04:48:50.777Z,1.50
2022-09-13T04:51:38.087Z,1.60
2022-09-13T04:54:25.266Z,1.60
2022-09-13T04:57:12.452Z,1.60
2022-09-13T04:59:59.500Z,1.80
2022-09-13T05:02:46.683Z,1.40
2022-09-13T05:05:33.815Z,1.73
2022-09-13T05:08:21.273Z,1.80
2022-09-13T05:11:08.893Z,1.67
2022-09-13T05:13:58.078Z,1.58
2022-09-13T05:16:45.220Z,1.70
2022-09-13T05:19:32.380Z,1.63
2022-09-13T05:22:19.492Z,1.65
2022-09-13T05:25:07.377Z,1.70
2022-09-13T05:27:54.634Z,1.83
2022-09-13T05:30:42.434Z,1.60
2022-09-13T05:33:33.115Z,1.60
2022-09-13T05:36:20.266Z,1.60
2022-09-13T05:39:29.761Z,1.80
2022-09-13T05:42:19.086Z,1.50
2022-09-13T05:45:06.953Z,1.70
2022-09-13T05:47:54.022Z,1.60
2022-09-13T05:53:49.952Z,1.48
2022-09-13T05:56:36.988Z,1.60
2022-09-13T05:59:24.086Z,1.52
2022-09-13T06:02:11.232Z,1.70
2022-09-13T06:04:58.356Z,1.60
2022-09-13T06:07:45.422Z,1.70
2022-09-13T06:10:32.479Z,1.52
2022-09-13T06:13:19.605Z,1.60
2022-09-13T06:16:09.508Z,1.98
2022-09-13T06:18:58.085Z,1.77
2022-09-13T06:21:45.617Z,1.80
2022-09-13T06:24:33.522Z,1.75
2022-09-13T06:27:20.685Z,2.08
2022-09-13T06:30:08.884Z,1.60
2022-09-13T06:32:57.027Z,1.80
2022-09-13T06:35:44.104Z,1.60
2022-09-13T06:38:31.444Z,1.60
2022-09-13T06:41:23.481Z,1.60
2022-09-13T06:44:10.784Z,1.55
2022-09-13T06:46:58.000Z,1.70
2022-09-13T06:49:45.756Z,1.85
2022-09-13T06:52:32.998Z,1.70
2022-09-13T06:55:20.276Z,1.60
2022-09-13T06:58:07.352Z,1.58
2022-09-13T07:00:56.272Z,1.67
2022-09-13T07:03:46.462Z,1.70
2022-09-13T07:06:39.184Z,1.50
2022-09-13T07:09:26.638Z,1.50
2022-09-13T07:12:17.633Z,1.58
2022-09-13T07:15:07.676Z,1.58
2022-09-13T07:17:54.861Z,1.42
2022-09-13T07:20:41.978Z,1.50
2022-09-13T07:23:33.475Z,1.40
2022-09-13T07:26:21.408Z,1.65
2022-09-13T07:29:12.454Z,1.50
2022-09-13T07:31:59.732Z,1.40
2022-09-13T07:34:48.579Z,1.60
2022-09-13T07:37:35.629Z,1.50
2022-09-13T07:40:22.794Z,1.40
2022-09-13T07:43:11.065Z,1.50
2022-09-13T07:46:04.067Z,1.55
2022-09-13T07:48:54.026Z,1.40
2022-09-13T07:51:43.151Z,1.67
2022-09-13T07:54:30.955Z,1.60
2022-09-13T07:57:18.056Z,1.17
2022-09-13T08:00:05.727Z,1.40
2022-09-13T08:02:58.820Z,1.02
2022-09-13T08:05:45.950Z,1.35
2022-09-13T08:08:33.941Z,1.33
2022-09-13T08:11:23.333Z,1.35
2022-09-13T08:14:13.113Z,1.45
2022-09-13T08:17:01.306Z,2.50
2022-09-13T08:19:48.437Z,1.50
2022-09-13T08:22:35.702Z,1.40
2022-09-13T08:25:22.767Z,1.40
2022-09-13T08:28:14.959Z,1.40
2022-09-13T08:31:10.946Z,1.30
2022-09-13T08:33:59.114Z,1.40
2022-09-13T08:36:46.181Z,1.38
2022-09-13T08:39:33.800Z,1.20
2022-09-13T08:43:06.603Z,1.20
2022-09-13T08:46:01.538Z,1.58
2022-09-13T08:48:51.670Z,1.30
2022-09-13T08:51:56.239Z,1.30
2022-09-13T08:54:43.814Z,1.30
2022-09-13T08:57:53.161Z,1.10
2022-09-13T09:00:54.165Z,1.30
2022-09-13T09:03:46.789Z,1.30
2022-09-13T09:06:35.267Z,1.13
2022-09-13T09:09:22.565Z,1.15
2022-09-13T09:12:19.373Z,1.17
2022-09-13T09:15:24.005Z,1.23
2022-09-13T09:18:13.572Z,1.08
2022-09-13T09:21:01.556Z,1.10
2022-09-13T09:23:53.631Z,1.10
2022-09-13T09:26:40.829Z,1.23
2022-09-13T09:29:32.620Z,1.05
2022-09-13T09:32:39.096Z,1.10
2022-09-13T09:35:45.238Z,1.00
2022-09-13T09:38:37.232Z,1.20
2022-09-13T09:41:32.489Z,1.00
2022-09-13T09:44:22.386Z,1.00
2022-09-13T09:47:18.081Z,1.17
2022-09-13T09:50:24.086Z,1.08
2022-09-13T09:53:15.015Z,1.15
2022-09-13T09:56:06.779Z,1.10
2022-09-13T09:58:55.801Z,1.10
2022-09-13T10:01:46.784Z,1.30
2022-09-13T10:04:34.488Z,1.08
2022-09-13T10:07:30.936Z,0.90
2022-09-13T10:10:41.682Z,1.00
2022-09-13T10:13:31.913Z,1.10
2022-09-13T10:16:27.930Z,0.95
2022-09-13T10:19:26.251Z,0.88
2022-09-13T10:22:13.410Z,1.10
2022-09-13T10:25:22.777Z,1.00
2022-09-13T10:28:17.963Z,1.33
2022-09-13T10:31:14.949Z,1.20
2022-09-13T10:34:21.215Z,1.23
2022-09-13T10:37:19.357Z,1.27
2022-09-13T10:40:38.548Z,1.00
2022-09-13T10:43:28.906Z,1.20
2022-09-13T10:46:23.235Z,1.00
2022-09-13T10:49:38.013Z,1.13
2022-09-13T10:52:30.899Z,1.10
2022-09-13T10:55:21.119Z,0.85
2022-09-13T10:58:08.201Z,0.98
2022-09-13T11:01:17.408Z,1.27
2022-09-13T11:04:04.531Z,1.00
2022-09-13T11:07:16.079Z,0.80
2022-09-13T11:10:16.979Z,1.00
2022-09-13T11:13:35.516Z,1.00
2022-09-13T11:16:34.943Z,1.00
2022-09-13T11:20:03.923Z,0.70
2022-09-13T11:23:08.735Z,0.90
2022-09-13T11:26:20.187Z,1.00
2022-09-13T11:29:28.749Z,1.17
2022-09-13T11:32:20.463Z,0.90
2022-09-13T11:35:25.789Z,1.13
2022-09-13T11:38:47.186Z,1.00
2022-09-13T11:42:05.003Z,1.00
2022-09-13T11:45:23.702Z,0.88
2022-09-13T11:48:41.314Z,0.93
2022-09-13T11:51:41.522Z,0.82
2022-09-13T11:57:24.717Z,1.00
2022-09-13T12:00:33.174Z,1.00
2022-09-13T12:03:31.584Z,1.05
2022-09-13T12:06:25.319Z,1.05
2022-09-13T12:09:20.992Z,1.00
2022-09-13T12:12:12.765Z,1.02
2022-09-13T12:15:02.295Z,1.00
2022-09-13T12:17:59.224Z,1.10
2022-09-13T12:21:14.841Z,1.08
2022-09-13T12:24:22.397Z,1.05
2022-09-13T12:27:46.744Z,1.00
2022-09-13T12:30:44.531Z,1.20
2022-09-13T12:33:31.745Z,0.82
2022-09-13T12:36:34.048Z,1.00
2022-09-13T12:39:33.896Z,1.10
2022-09-13T12:42:44.332Z,1.00
2022-09-13T12:45:55.379Z,1.20
2022-09-13T12:48:57.765Z,0.88
2022-09-13T12:52:06.265Z,0.80
2022-09-13T12:55:29.392Z,0.90
2022-09-13T12:58:34.766Z,1.00
2022-09-13T13:01:25.193Z,1.00
2022-09-13T13:04:28.818Z,0.82
2022-09-13T13:07:21.584Z,1.80
2022-09-13T13:10:25.982Z,0.80
2022-09-13T13:13:19.694Z,0.80
2022-09-13T13:16:28.804Z,0.80
2022-09-13T13:19:31.969Z,0.70
2022-09-13T13:22:44.312Z,0.70
2022-09-13T13:25:39.158Z,0.77
2022-09-13T13:28:45.189Z,0.70
2022-09-13T13:31:33.988Z,0.70
2022-09-13T13:34:21.248Z,0.73
2022-09-13T13:37:08.786Z,0.80
2022-09-13T13:40:26.408Z,0.77
2022-09-13T13:43:34.367Z,0.80
2022-09-13T13:46:29.976Z,0.90
2022-09-13T13:49:32.612Z,0.90
2022-09-13T13:52:22.622Z,0.82
2022-09-13T13:55:33.632Z,0.65
2022-09-13T13:58:49.119Z,0.82
2022-09-13T14:01:44.020Z,0.80
2022-09-13T14:04:34.304Z,0.80
2022-09-13T14:07:56.643Z,0.85
2022-09-13T14:10:47.723Z,0.90
2022-09-13T14:13:50.139Z,0.75
2022-09-13T14:17:11.386Z,0.80
2022-09-13T14:20:15.305Z,0.70
2022-09-13T14:23:18.858Z,1.02
2022-09-13T14:26:06.304Z,0.90
2022-09-13T14:28:53.436Z,0.90
2022-09-13T14:31:40.602Z,0.80
2022-09-13T14:34:33.877Z,0.93
2022-09-13T14:37:25.231Z,0.88
2022-09-13T14:40:19.247Z,0.75
2022-09-13T14:43:17.126Z,0.80
2022-09-13T14:46:23.596Z,0.85
2022-09-13T14:49:21.010Z,0.70
2022-09-13T14:52:37.144Z,0.85
2022-09-13T14:55:32.956Z,0.93
2022-09-13T14:58:28.160Z,0.82
2022-09-13T15:01:20.053Z,0.70
2022-09-13T15:04:07.884Z,0.90
2022-09-13T15:07:28.658Z,0.82
2022-09-13T15:10:15.676Z,0.82
2022-09-13T15:13:05.734Z,1.10
2022-09-13T15:15:53.809Z,0.70
2022-09-13T15:18:40.984Z,0.88
2022-09-13T15:21:28.693Z,0.77
2022-09-13T15:24:31.789Z,0.80
2022-09-13T15:27:43.659Z,0.70
2022-09-13T15:30:39.752Z,0.70
2022-09-13T15:33:32.543Z,0.75
2022-09-13T15:36:19.536Z,0.80
2022-09-13T15:39:09.721Z,0.90
2022-09-13T15:42:02.597Z,0.77
2022-09-13T15:44:49.672Z,0.70
2022-09-13T15:47:37.441Z,0.80
2022-09-13T15:50:29.002Z,0.85
2022-09-13T15:53:16.211Z,0.95
2022-09-13T15:56:04.428Z,0.73
2022-09-13T15:58:51.524Z,0.90
2022-09-13T16:01:38.729Z,0.80
2022-09-13T16:04:25.897Z,0.85
2022-09-13T16:07:13.508Z,1.00
2022-09-13T16:10:01.934Z,0.95
2022-09-13T16:12:49.316Z,0.80
2022-09-13T16:15:36.857Z,1.00
2022-09-13T16:18:24.819Z,1.10
2022-09-13T16:21:11.865Z,1.00
2022-09-13T16:23:59.285Z,0.93
2022-09-13T16:26:46.571Z,1.00
2022-09-13T16:29:33.862Z,1.10
2022-09-13T16:32:21.598Z,1.20
2022-09-13T16:35:11.185Z,1.20
2022-09-13T16:37:58.573Z,1.10
2022-09-13T16:40:45.654Z,1.20
2022-09-13T16:43:33.095Z,1.13
2022-09-13T16:46:20.388Z,1.20
2022-09-13T16:49:07.594Z,1.17
2022-09-13T16:51:54.656Z,1.20
2022-09-13T16:54:42.816Z,1.25
2022-09-13T16:57:30.345Z,1.40
2022-09-13T17:00:20.203Z,1.20
2022-09-13T17:03:07.370Z,1.40
2022-09-13T17:06:01.453Z,1.52
2022-09-13T17:08:57.704Z,1.35
2022-09-13T17:11:45.665Z,1.25
2022-09-13T17:14:33.812Z,1.27
2022-09-13T17:17:21.108Z,1.40
2022-09-13T17:20:11.137Z,1.40
2022-09-13T17:22:58.621Z,1.40
2022-09-13T17:25:49.305Z,1.38
2022-09-13T17:28:36.674Z,1.50
2022-09-13T17:31:24.078Z,1.60
2022-09-13T17:34:12.954Z,1.70
2022-09-13T17:37:00.477Z,1.50
2022-09-13T17:39:48.285Z,1.45
2022-09-13T17:42:35.519Z,1.48
2022-09-13T17:45:23.655Z,1.40
2022-09-13T17:48:10.720Z,1.45
2022-09-13T17:51:06.328Z,1.38
2022-09-13T17:53:55.712Z,1.40
2022-09-13T17:56:44.851Z,1.48
2022-09-13T17:59:32.239Z,1.50
2022-09-13T18:02:19.478Z,1.63
2022-09-13T18:05:10.645Z,1.40
2022-09-13T18:08:00.226Z,1.50
2022-09-13T18:11:04.154Z,1.30
2022-09-13T18:13:54.774Z,1.65
2022-09-13T18:16:42.592Z,1.90
2022-09-13T18:19:45.494Z,1.85
2022-09-13T18:22:33.690Z,1.63
2022-09-13T18:25:23.503Z,1.80
2022-09-13T18:28:10.599Z,2.00
2022-09-13T18:31:00.244Z,1.90
2022-09-13T18:33:48.052Z,2.00
2022-09-13T18:36:36.445Z,1.77
2022-09-13T18:39:23.637Z,1.90
2022-09-13T18:42:10.844Z,1.73
2022-09-13T18:44:57.931Z,1.80
2022-09-13T18:47:45.031Z,1.52
2022-09-13T18:50:32.079Z,1.77
2022-09-13T18:53:19.185Z,2.28
2022-09-13T18:56:11.610Z,2.47
2022-09-13T18:59:01.374Z,3.92
2022-09-13T19:01:49.055Z,4.10
2022-09-13T19:04:37.231Z,3.25
2022-09-13T19:07:24.535Z,2.60
2022-09-13T19:10:15.918Z,2.60
2022-09-13T19:13:04.435Z,2.40
2022-09-13T19:15:51.633Z,2.17
2022-09-13T19:18:41.027Z,2.10
2022-09-13T19:21:30.390Z,2.40
2022-09-13T19:24:19.407Z,2.40
2022-09-13T19:27:07.170Z,2.30
2022-09-13T19:29:54.573Z,2.30
2022-09-13T19:32:41.867Z,2.30
2022-09-13T19:35:29.228Z,2.20
2022-09-13T19:38:16.354Z,2.45
2022-09-13T19:41:05.762Z,3.00
2022-09-13T19:43:55.555Z,3.08
2022-09-13T19:46:44.134Z,2.70
2022-09-13T19:49:31.366Z,2.38
2022-09-13T19:52:18.760Z,2.28
2022-09-13T19:55:06.824Z,2.28
2022-09-13T19:57:53.966Z,2.50
2022-09-13T20:00:42.046Z,2.28
2022-09-13T20:03:29.408Z,2.47
2022-09-13T20:06:17.158Z,2.10
2022-09-13T20:09:05.019Z,2.30
2022-09-13T20:11:55.175Z,2.40
2022-09-13T20:14:42.505Z,2.10
2022-09-13T20:17:29.776Z,2.20
2022-09-13T20:20:17.314Z,2.50
2022-09-13T20:23:04.398Z,2.50
2022-09-13T20:25:54.329Z,1.95
2022-09-13T20:28:42.071Z,2.47
2022-09-13T20:31:31.427Z,2.33
2022-09-13T20:34:18.585Z,2.45
2022-09-13T20:37:05.844Z,2.00
2022-09-13T20:39:53.703Z,2.20
2022-09-13T20:42:40.922Z,1.80
2022-09-13T20:45:28.391Z,2.40
2022-09-13T20:48:16.295Z,2.40
2022-09-13T20:51:08.888Z,2.47
2022-09-13T20:53:58.187Z,1.90
2022-09-13T20:56:46.284Z,2.00
2022-09-13T20:59:33.429Z,2.60
2022-09-13T21:02:20.797Z,1.80
2022-09-13T21:05:08.288Z,1.92
2022-09-13T21:08:13.993Z,1.70
2022-09-13T21:11:03.412Z,2.08
2022-09-13T21:13:54.583Z,1.88
2022-09-13T21:16:41.877Z,1.88
2022-09-13T21:19:29.334Z,2.10
2022-09-13T21:22:16.457Z,1.95
2022-09-13T21:25:03.897Z,2.38
2022-09-13T21:27:51.056Z,2.00
2022-09-13T21:30:38.451Z,2.53
2022-09-13T21:33:26.446Z,2.10
2022-09-13T21:36:14.090Z,2.20
2022-09-13T21:39:02.038Z,2.15
2022-09-13T21:41:49.306Z,2.25
2022-09-13T21:44:38.636Z,2.15
2022-09-13T21:47:25.666Z,2.03
2022-09-13T21:50:12.833Z,2.10
2022-09-13T21:52:59.992Z,2.20
2022-09-13T21:55:47.304Z,2.10
2022-09-13T21:58:35.596Z,1.80
2022-09-13T22:01:23.868Z,2.00
2022-09-13T22:04:16.117Z,1.95
2022-09-13T22:07:03.241Z,2.08
2022-09-13T22:09:50.306Z,2.20
2022-09-13T22:12:37.395Z,2.10
2022-09-13T22:15:24.506Z,2.03
2022-09-13T22:18:11.640Z,1.75
2022-09-13T22:21:14.388Z,2.00
2022-09-13T22:24:05.079Z,1.98
2022-09-13T22:26:56.279Z,2.00
2022-09-13T22:29:43.339Z,2.10
2022-09-13T22:32:30.735Z,2.35
2022-09-13T22:35:18.040Z,2.20
2022-09-13T22:38:06.304Z,2.10
2022-09-13T22:40:58.312Z,2.20
2022-09-13T22:43:46.360Z,2.35
2022-09-13T22:46:34.963Z,2.15
2022-09-13T22:49:22.020Z,2.20
2022-09-13T22:52:09.181Z,2.20
2022-09-13T22:54:56.263Z,2.03
2022-09-13T22:57:43.449Z,2.22
2022-09-13T23:00:30.762Z,2.40
2022-09-13T23:03:18.072Z,1.95
2022-09-13T23:06:06.408Z,2.00
2022-09-13T23:08:55.435Z,2.00
2022-09-13T23:11:43.032Z,2.15
2022-09-13T23:14:30.211Z,2.00
2022-09-13T23:17:17.593Z,2.10
2022-09-13T23:20:07.014Z,2.10
2022-09-13T23:22:54.105Z,2.40
2022-09-13T23:25:41.173Z,2.20
2022-09-13T23:28:30.254Z,2.50
2022-09-13T23:31:19.946Z,2.13
2022-09-13T23:34:09.698Z,2.40
2022-09-13T23:36:56.805Z,2.20
2022-09-13T23:39:43.879Z,2.30
2022-09-13T23:42:31.597Z,2.40
2022-09-13T23:45:18.991Z,2.30
2022-09-13T23:48:06.066Z,2.42
2022-09-13T23:51:03.901Z,1.95
2022-09-13T23:53:52.834Z,2.40
2022-09-13T23:56:40.061Z,2.55
2022-09-13T23:59:27.206Z,2.50
